Time;durP1;ratioP1;P1;durP2;ratioP2;P2;SDS_P1;SDS_P2;PMS_P1;PMS_P2;Temp;Humidity;BMP_temperature;BMP_pressure;BME280_temperature;BME280_humidity;BME280_pressure;Samples;Min_cycle;Max_cycle;Signal;HPM_P1;HPM_P2
2021/07/20 00:00:54;;;;;;;4.17;2.30;;;;;;;;;;10445593;28;20056;-79
2021/07/20 00:05:54;;;;;;;3.83;2.30;;;;;;;;;;10446013;28;20184;-79
2021/07/20 00:10:58;;;;;;;4.20;2.33;;;;;;;;;;10445650;28;20099;-79
2021/07/20 00:15:59;;;;;;;4.15;2.55;;;;;;;;;;10445809;28;20458;-79
2021/07/20 00:21:01;;;;;;;3.42;2.35;;;;;;;;;;10445707;28;20037;-79
2021/07/20 00:26:02;;;;;;;5.70;2.30;;;;;;;;;;10447141;28;20072;-79
2021/07/20 00:31:03;;;;;;;2.80;2.45;;;;;;;;;;10447370;28;20491;-80
2021/07/20 00:36:04;;;;;;;7.28;2.45;;;;;;;;;;10445874;28;20045;-80
2021/07/20 00:41:05;;;;;;;3.73;2.30;;;;;;;;;;10423413;28;20034;-80
2021/07/20 00:46:06;;;;;;;2.50;1.80;;;;;;;;;;10402877;28;20423;-80
2021/07/20 00:51:06;;;;;;;2.37;2.13;;;;;;;;;;10417232;28;20103;-80
2021/07/20 00:56:06;;;;;;;4.30;2.33;;;;;;;;;;10416676;28;20459;-80
2021/07/20 01:01:07;;;;;;;2.53;2.10;;;;;;;;;;10403039;28;20057;-80
2021/07/20 01:06:08;;;;;;;3.33;2.20;;;;;;;;;;10416282;28;20076;-80
2021/07/20 01:11:09;;;;;;;3.80;2.15;;;;;;;;;;10416522;28;20458;-80
2021/07/20 01:16:10;;;;;;;2.58;2.35;;;;;;;;;;10414922;28;20046;-80
2021/07/20 01:21:11;;;;;;;4.65;2.20;;;;;;;;;;10414549;28;20047;-80
2021/07/20 01:26:13;;;;;;;3.50;2.47;;;;;;;;;;10413122;28;20124;-79
2021/07/20 01:31:16;;;;;;;3.65;2.22;;;;;;;;;;10442905;23;20065;-79
2021/07/20 01:36:18;;;;;;;3.45;2.35;;;;;;;;;;10455019;28;20044;-79
2021/07/20 01:41:19;;;;;;;4.50;2.22;;;;;;;;;;10456397;28;20510;-79
2021/07/20 01:46:19;;;;;;;3.50;2.30;;;;;;;;;;10455146;28;20115;-80
2021/07/20 01:51:24;;;;;;;3.33;2.38;;;;;;;;;;10455304;28;20501;-80
2021/07/20 01:56:25;;;;;;;3.63;2.28;;;;;;;;;;10456151;28;20509;-80
2021/07/20 02:01:40;;;;;;;4.00;2.70;;;;;;;;;;10454380;28;20041;-80
2021/07/20 02:12:11;;;;;;;5.45;2.20;;;;;;;;;;10454922;28;21051;-79
2021/07/20 02:17:13;;;;;;;2.70;2.03;;;;;;;;;;10453866;28;20522;-79
2021/07/20 02:22:18;;;;;;;3.15;2.20;;;;;;;;;;10453606;28;20033;-79
2021/07/20 02:27:20;;;;;;;3.22;2.30;;;;;;;;;;10440619;28;20432;-79
2021/07/20 02:32:22;;;;;;;4.18;2.50;;;;;;;;;;10452645;28;20076;-80
2021/07/20 02:37:23;;;;;;;4.65;2.60;;;;;;;;;;10452747;28;20049;-80
2021/07/20 02:42:25;;;;;;;5.55;2.30;;;;;;;;;;10454125;28;20099;-80
2021/07/20 02:47:26;;;;;;;4.45;2.20;;;;;;;;;;10454772;28;20463;-79
2021/07/20 02:52:30;;;;;;;3.70;1.80;;;;;;;;;;10455239;28;20044;-79
2021/07/20 02:57:32;;;;;;;2.30;2.03;;;;;;;;;;10455129;28;20128;-79
2021/07/20 03:02:35;;;;;;;2.40;1.98;;;;;;;;;;10452910;28;20371;-79
2021/07/20 03:07:36;;;;;;;2.88;2.13;;;;;;;;;;10451946;28;20048;-79
2021/07/20 03:12:39;;;;;;;5.38;2.22;;;;;;;;;;10451490;28;20040;-79
2021/07/20 03:17:40;;;;;;;4.28;2.40;;;;;;;;;;10452138;28;20029;-79
2021/07/20 03:22:41;;;;;;;2.60;2.33;;;;;;;;;;10451869;28;20045;-79
2021/07/20 03:27:42;;;;;;;3.08;1.83;;;;;;;;;;10452697;28;20359;-79
2021/07/20 03:32:47;;;;;;;3.47;2.40;;;;;;;;;;10451245;28;20084;-79
2021/07/20 03:37:48;;;;;;;3.20;2.70;;;;;;;;;;10438276;28;20390;-79
2021/07/20 03:42:48;;;;;;;2.20;2.00;;;;;;;;;;10452319;28;20052;-79
2021/07/20 03:47:49;;;;;;;3.00;2.00;;;;;;;;;;10450232;28;20052;-80
2021/07/20 03:52:50;;;;;;;4.35;2.30;;;;;;;;;;10450718;28;20067;-79
2021/07/20 03:57:51;;;;;;;3.65;2.25;;;;;;;;;;10450860;28;20108;-79
2021/07/20 04:08:13;;;;;;;4.25;2.08;;;;;;;;;;10450489;28;20053;-79
2021/07/20 04:13:15;;;;;;;4.22;2.22;;;;;;;;;;10451763;28;20122;-79
2021/07/20 04:18:15;;;;;;;3.83;2.22;;;;;;;;;;10458072;28;20033;-81
2021/07/20 04:23:20;;;;;;;2.63;1.77;;;;;;;;;;10456973;28;20048;-81
2021/07/20 04:28:23;;;;;;;3.58;2.30;;;;;;;;;;10457988;28;20107;-81
2021/07/20 04:33:28;;;;;;;4.53;2.60;;;;;;;;;;10457551;28;20515;-81
2021/07/20 04:38:31;;;;;;;3.13;2.30;;;;;;;;;;10457294;28;20143;-80
2021/07/20 04:43:32;;;;;;;3.17;2.30;;;;;;;;;;10457562;28;20075;-79
2021/07/20 04:48:34;;;;;;;3.13;2.33;;;;;;;;;;10455903;28;21739;-79
2021/07/20 04:53:36;;;;;;;6.03;2.50;;;;;;;;;;10455796;28;20049;-79
2021/07/20 04:58:38;;;;;;;2.40;2.20;;;;;;;;;;10452386;28;20079;-80
2021/07/20 05:03:39;;;;;;;4.60;1.98;;;;;;;;;;10447418;28;20120;-79
2021/07/20 05:08:40;;;;;;;4.13;2.33;;;;;;;;;;10448413;28;20094;-80
2021/07/20 05:13:41;;;;;;;2.60;2.00;;;;;;;;;;10454940;28;20474;-80
2021/07/20 05:18:45;;;;;;;2.63;2.05;;;;;;;;;;10456261;28;20386;-80
2021/07/20 05:23:46;;;;;;;2.78;2.05;;;;;;;;;;10456074;28;20037;-80
2021/07/20 05:28:47;;;;;;;3.08;2.05;;;;;;;;;;10455050;28;20057;-81
2021/07/20 05:33:48;;;;;;;3.95;2.28;;;;;;;;;;10439976;28;20056;-80
2021/07/20 05:38:48;;;;;;;4.28;2.20;;;;;;;;;;10454381;28;20123;-80
2021/07/20 05:43:49;;;;;;;2.30;2.10;;;;;;;;;;10446066;28;20495;-80
2021/07/20 05:48:51;;;;;;;2.30;2.10;;;;;;;;;;10449335;28;20077;-80
2021/07/20 05:53:53;;;;;;;3.45;2.08;;;;;;;;;;10455272;28;20037;-81
2021/07/20 05:58:53;;;;;;;3.28;2.08;;;;;;;;;;10455005;28;20184;-81
2021/07/20 06:03:55;;;;;;;7.50;2.50;;;;;;;;;;10452830;28;20123;-80
2021/07/20 06:08:57;;;;;;;5.25;2.28;;;;;;;;;;10455570;28;20470;-80
2021/07/20 06:13:57;;;;;;;2.72;2.45;;;;;;;;;;10452510;28;20431;-84
2021/07/20 06:18:58;;;;;;;4.55;2.65;;;;;;;;;;10446625;28;20044;-84
2021/07/20 06:23:59;;;;;;;5.03;2.20;;;;;;;;;;10453125;28;20061;-83
2021/07/20 06:29:01;;;;;;;5.53;2.60;;;;;;;;;;10454346;28;20053;-85
2021/07/20 06:34:02;;;;;;;4.28;2.50;;;;;;;;;;10454172;28;20920;-84
2021/07/20 06:39:05;;;;;;;4.53;2.67;;;;;;;;;;10452852;28;20049;-85
2021/07/20 06:44:06;;;;;;;5.93;2.30;;;;;;;;;;10453422;28;20371;-84
2021/07/20 06:49:07;;;;;;;4.60;2.72;;;;;;;;;;10451720;28;20056;-85
2021/07/20 06:54:08;;;;;;;6.63;2.90;;;;;;;;;;10451701;28;20041;-84
2021/07/20 06:59:09;;;;;;;6.05;2.30;;;;;;;;;;10453045;28;20044;-85
2021/07/20 07:04:21;;;;;;;6.18;2.67;;;;;;;;;;10452325;28;20045;-83
2021/07/20 07:09:24;;;;;;;5.07;2.72;;;;;;;;;;10451780;28;20552;-83
2021/07/20 07:14:28;;;;;;;7.85;2.60;;;;;;;;;;10452663;28;20045;-83
2021/07/20 07:19:29;;;;;;;4.28;2.45;;;;;;;;;;10451064;28;20123;-86
2021/07/20 07:24:30;;;;;;;18.15;3.17;;;;;;;;;;10451001;28;20132;-86
2021/07/20 07:29:31;;;;;;;13.75;3.67;;;;;;;;;;10449508;28;20041;-86
2021/07/20 07:34:31;;;;;;;11.32;3.85;;;;;;;;;;10450477;28;20037;-87
2021/07/20 07:39:32;;;;;;;14.27;3.88;;;;;;;;;;10436940;28;20049;-87
2021/07/20 07:44:33;;;;;;;7.03;3.63;;;;;;;;;;10436534;28;20082;-88
2021/07/20 07:49:34;;;;;;;9.07;3.67;;;;;;;;;;10455071;28;20049;-87
2021/07/20 07:54:34;;;;;;;5.68;3.50;;;;;;;;;;10443281;28;20045;-86
2021/07/20 07:59:38;;;;;;;15.80;4.65;;;;;;;;;;10457586;28;20139;-85
2021/07/20 08:04:40;;;;;;;11.13;4.20;;;;;;;;;;10457182;28;20033;-87
2021/07/20 08:09:41;;;;;;;10.98;4.18;;;;;;;;;;10431889;28;20076;-88
2021/07/20 08:14:43;;;;;;;19.30;4.93;;;;;;;;;;10454394;28;20084;-86
2021/07/20 08:19:44;;;;;;;13.13;4.93;;;;;;;;;;10457326;28;20076;-84
2021/07/20 08:24:55;;;;;;;15.30;4.57;;;;;;;;;;10456785;28;20048;-85
2021/07/20 08:29:56;;;;;;;17.98;4.80;;;;;;;;;;10443200;28;20052;-85
2021/07/20 08:35:09;;;;;;;20.98;4.45;;;;;;;;;;10460000;28;20056;-85
2021/07/20 08:40:23;;;;;;;16.63;4.70;;;;;;;;;;10464193;28;20045;-86
2021/07/20 08:45:26;;;;;;;17.83;4.47;;;;;;;;;;10463017;28;20589;-86
2021/07/20 08:50:31;;;;;;;15.45;4.65;;;;;;;;;;10444955;28;20133;-85
2021/07/20 08:55:39;;;;;;;10.13;3.83;;;;;;;;;;10457430;28;20046;-86
2021/07/20 09:00:42;;;;;;;18.90;4.35;;;;;;;;;;10439121;28;20037;-86
2021/07/20 09:05:45;;;;;;;12.15;4.45;;;;;;;;;;10457501;28;20048;-87
2021/07/20 09:10:51;;;;;;;13.60;4.50;;;;;;;;;;10457822;28;20040;-86
2021/07/20 09:16:03;;;;;;;20.85;5.43;;;;;;;;;;10456377;28;20291;-85
2021/07/20 09:21:06;;;;;;;14.30;5.30;;;;;;;;;;10442258;28;20486;-84
2021/07/20 09:26:21;;;;;;;10.20;4.50;;;;;;;;;;10456624;28;20482;-86
2021/07/20 09:32:07;;;;;;;14.40;4.70;;;;;;;;;;10439810;28;20132;-90
2021/07/20 09:37:10;;;;;;;13.30;4.13;;;;;;;;;;10439358;28;20404;-90
2021/07/20 09:42:20;;;;;;;16.67;4.22;;;;;;;;;;10441684;28;20048;-92
2021/07/20 09:47:25;;;;;;;10.18;4.03;;;;;;;;;;10455471;28;20487;-91
2021/07/20 09:52:31;;;;;;;17.08;4.78;;;;;;;;;;10451951;28;20474;-93
2021/07/20 09:57:50;;;;;;;10.38;4.85;;;;;;;;;;10473024;28;20131;-90
2021/07/20 10:03:09;;;;;;;23.83;4.38;;;;;;;;;;10432679;28;20041;-90
2021/07/20 10:08:38;;;;;;;11.95;4.72;;;;;;;;;;10457681;28;20062;-89
2021/07/20 10:13:48;;;;;;;10.43;4.30;;;;;;;;;;10415001;28;20478;-89
2021/07/20 10:19:04;;;;;;;11.07;4.95;;;;;;;;;;10438983;28;20091;-91
2021/07/20 10:24:15;;;;;;;7.75;4.25;;;;;;;;;;10441191;28;20045;-93
2021/07/20 10:29:23;;;;;;;10.68;4.28;;;;;;;;;;10437055;28;20063;-89
2021/07/20 10:34:26;;;;;;;9.95;4.63;;;;;;;;;;10449809;28;20037;-89
2021/07/20 10:39:36;;;;;;;8.50;3.95;;;;;;;;;;10455303;28;20048;-91
2021/07/20 10:44:47;;;;;;;12.77;4.47;;;;;;;;;;10413971;28;20376;-93
2021/07/20 10:49:50;;;;;;;11.95;4.60;;;;;;;;;;10427310;28;20126;-85
2021/07/20 10:55:08;;;;;;;8.70;4.57;;;;;;;;;;10437027;28;20049;-83
2021/07/20 11:00:14;;;;;;;10.85;4.60;;;;;;;;;;10452862;28;20045;-84
2021/07/20 11:05:16;;;;;;;11.52;4.93;;;;;;;;;;10440786;28;20061;-92
2021/07/20 11:10:22;;;;;;;11.25;5.35;;;;;;;;;;10452442;28;20041;-85
2021/07/20 11:15:25;;;;;;;11.68;4.90;;;;;;;;;;10452693;28;20052;-83
2021/07/20 11:20:26;;;;;;;9.93;4.45;;;;;;;;;;10450937;28;20041;-83
2021/07/20 11:25:26;;;;;;;10.48;4.60;;;;;;;;;;10453116;28;20041;-84
2021/07/20 11:30:31;;;;;;;10.18;4.88;;;;;;;;;;10450933;28;20045;-84
2021/07/20 11:35:36;;;;;;;7.47;4.18;;;;;;;;;;10441726;28;20495;-85
2021/07/20 11:41:16;;;;;;;7.40;4.60;;;;;;;;;;10433117;28;20048;-88
2021/07/20 11:46:21;;;;;;;10.77;4.32;;;;;;;;;;10396633;28;20041;-84
2021/07/20 11:51:29;;;;;;;6.82;3.78;;;;;;;;;;10436140;28;20045;-85
2021/07/20 11:56:31;;;;;;;6.28;4.13;;;;;;;;;;10444003;28;20128;-84
2021/07/20 12:01:38;;;;;;;4.70;4.10;;;;;;;;;;10428364;28;20052;-86
2021/07/20 12:07:09;;;;;;;10.63;4.55;;;;;;;;;;10441726;28;20479;-85
2021/07/20 12:12:10;;;;;;;7.18;4.43;;;;;;;;;;10445032;28;20048;-85
2021/07/20 12:17:13;;;;;;;8.18;4.72;;;;;;;;;;10447163;28;20056;-85
2021/07/20 12:22:17;;;;;;;12.23;4.43;;;;;;;;;;10450829;28;20077;-85
2021/07/20 12:27:20;;;;;;;12.18;4.75;;;;;;;;;;10445486;28;20037;-88
2021/07/20 12:32:21;;;;;;;10.25;4.75;;;;;;;;;;10449786;28;20410;-88
2021/07/20 12:37:27;;;;;;;7.80;4.77;;;;;;;;;;10455474;28;20049;-91
2021/07/20 12:42:35;;;;;;;10.68;5.32;;;;;;;;;;10430747;28;20816;-92
2021/07/20 12:47:52;;;;;;;12.05;5.20;;;;;;;;;;10436333;28;20049;-91
2021/07/20 13:06:27;;;;;;;;;;;;;;;;;;;;;
2021/07/20 13:11:28;;;;;;;6.70;4.45;;;;;;;;;;10362832;28;20507;-88
2021/07/20 13:16:31;;;;;;;6.90;4.28;;;;;;;;;;10362943;28;20042;-86
2021/07/20 13:21:39;;;;;;;11.05;4.55;;;;;;;;;;10371281;28;20049;-86
2021/07/20 13:26:40;;;;;;;;;;;;;;;;;;10369639;28;20427;-87
2021/07/20 13:31:45;;;;;;;7.82;4.25;;;;;;;;;;10488924;22;19923;-88
2021/07/20 13:36:46;;;;;;;8.18;4.28;;;;;;;;;;10483564;28;20120;-86
2021/07/20 13:41:47;;;;;;;5.70;4.07;;;;;;;;;;10484128;28;20037;-86
2021/07/20 13:46:49;;;;;;;6.90;4.25;;;;;;;;;;10499167;28;20127;-86
2021/07/20 13:51:50;;;;;;;6.50;3.97;;;;;;;;;;10449780;28;20037;-89
2021/07/20 13:56:52;;;;;;;6.05;3.72;;;;;;;;;;10404214;28;20056;-84
2021/07/20 14:01:53;;;;;;;4.30;3.88;;;;;;;;;;10430168;28;20388;-83
2021/07/20 14:06:53;;;;;;;7.45;4.47;;;;;;;;;;10441336;28;20060;-87
2021/07/20 14:11:54;;;;;;;6.93;3.75;;;;;;;;;;10445331;28;20041;-85
2021/07/20 14:16:55;;;;;;;6.97;3.67;;;;;;;;;;10430939;28;20062;-84
2021/07/20 14:21:57;;;;;;;6.57;3.95;;;;;;;;;;10456787;28;20136;-84
2021/07/20 14:26:58;;;;;;;7.15;3.53;;;;;;;;;;10424707;28;20045;-84
2021/07/20 14:32:19;;;;;;;4.88;3.47;;;;;;;;;;10464871;28;20108;-87
2021/07/20 14:37:54;;;;;;;6.93;4.00;;;;;;;;;;10411716;28;20506;-85
2021/07/20 14:43:07;;;;;;;6.63;3.72;;;;;;;;;;10398887;28;20080;-84
2021/07/20 14:48:10;;;;;;;5.53;3.63;;;;;;;;;;10413892;28;20510;-84
2021/07/20 14:53:22;;;;;;;3.95;3.50;;;;;;;;;;10455002;28;20510;-84
2021/07/20 14:58:27;;;;;;;6.75;3.67;;;;;;;;;;10412297;28;20041;-85
2021/07/20 15:03:34;;;;;;;5.63;3.83;;;;;;;;;;10413031;28;20041;-86
2021/07/20 15:08:49;;;;;;;6.63;3.65;;;;;;;;;;10412539;28;20382;-86
2021/07/20 15:13:56;;;;;;;4.65;3.70;;;;;;;;;;10460391;28;20039;-89
2021/07/20 15:19:10;;;;;;;5.05;3.78;;;;;;;;;;10476065;28;20052;-86
2021/07/20 15:24:15;;;;;;;7.35;3.90;;;;;;;;;;10447690;28;20045;-87
2021/07/20 15:29:17;;;;;;;5.18;3.50;;;;;;;;;;10487487;28;20053;-91
2021/07/20 15:34:25;;;;;;;5.78;3.90;;;;;;;;;;10461362;28;20037;-94
2021/07/20 15:39:25;;;;;;;4.93;4.05;;;;;;;;;;10460151;28;20049;-95
2021/07/20 15:44:29;;;;;;;7.27;3.60;;;;;;;;;;10463793;28;20394;-94
2021/07/20 15:49:33;;;;;;;5.75;3.83;;;;;;;;;;10406738;28;20550;-88
2021/07/20 15:54:33;;;;;;;8.35;3.88;;;;;;;;;;10394967;28;20140;-87
2021/07/20 15:59:34;;;;;;;4.82;3.67;;;;;;;;;;10402147;28;20070;-88
2021/07/20 16:04:36;;;;;;;6.57;3.60;;;;;;;;;;10415329;28;20037;-88
2021/07/20 16:09:36;;;;;;;5.63;3.63;;;;;;;;;;10425242;28;20115;-88
2021/07/20 16:14:37;;;;;;;8.13;3.60;;;;;;;;;;10434748;28;20381;-88
2021/07/20 16:19:38;;;;;;;5.05;3.90;;;;;;;;;;10439814;28;20505;-88
2021/07/20 16:24:43;;;;;;;5.83;3.30;;;;;;;;;;10452579;28;20071;-88
2021/07/20 16:29:43;;;;;;;5.45;3.67;;;;;;;;;;10422644;28;20546;-88
2021/07/20 16:34:43;;;;;;;5.93;3.73;;;;;;;;;;10422815;28;20199;-88
2021/07/20 16:39:44;;;;;;;6.10;3.80;;;;;;;;;;10416064;28;20475;-88
2021/07/20 16:44:45;;;;;;;5.97;3.50;;;;;;;;;;10398276;28;20037;-88
2021/07/20 16:49:45;;;;;;;5.85;3.80;;;;;;;;;;10396354;28;20045;-86
2021/07/20 16:54:46;;;;;;;5.22;3.65;;;;;;;;;;10425366;28;21269;-86
2021/07/20 16:59:47;;;;;;;4.93;3.80;;;;;;;;;;10447170;28;20040;-86
2021/07/20 17:04:47;;;;;;;8.27;3.95;;;;;;;;;;10481066;28;20048;-85
2021/07/20 17:09:50;;;;;;;7.25;3.65;;;;;;;;;;10438413;28;20049;-83
2021/07/20 17:14:50;;;;;;;4.00;3.60;;;;;;;;;;10441585;28;20045;-83
2021/07/20 17:19:54;;;;;;;4.10;3.70;;;;;;;;;;10416681;28;20049;-83
2021/07/20 17:24:55;;;;;;;5.72;3.70;;;;;;;;;;10414594;28;20041;-83
2021/07/20 17:30:00;;;;;;;8.75;3.38;;;;;;;;;;10414717;28;20053;-82
2021/07/20 17:35:10;;;;;;;6.57;4.00;;;;;;;;;;10474473;28;20128;-86
2021/07/20 17:40:14;;;;;;;8.15;4.43;;;;;;;;;;10498084;28;20087;-85
2021/07/20 17:45:15;;;;;;;9.93;4.70;;;;;;;;;;10429202;28;20509;-86
2021/07/20 17:50:17;;;;;;;12.45;4.53;;;;;;;;;;10498086;28;20063;-85
2021/07/20 17:55:20;;;;;;;14.70;5.72;;;;;;;;;;10484909;28;20045;-86
2021/07/20 18:00:28;;;;;;;12.15;5.78;;;;;;;;;;10463362;28;20052;-86
2021/07/20 18:05:28;;;;;;;8.50;4.75;;;;;;;;;;10444086;28;20123;-86
2021/07/20 18:10:29;;;;;;;14.93;5.27;;;;;;;;;;10426879;28;20491;-86
2021/07/20 18:15:29;;;;;;;13.40;4.80;;;;;;;;;;10438921;28;20553;-86
2021/07/20 18:20:30;;;;;;;10.80;4.80;;;;;;;;;;10463546;28;20380;-86
2021/07/20 18:25:31;;;;;;;12.00;4.63;;;;;;;;;;10469339;28;20091;-86
2021/07/20 18:30:33;;;;;;;14.38;5.10;;;;;;;;;;10454769;28;20487;-86
2021/07/20 18:35:34;;;;;;;8.52;4.57;;;;;;;;;;10493249;28;20048;-86
2021/07/20 18:40:34;;;;;;;8.75;4.78;;;;;;;;;;10494586;28;20048;-86
2021/07/20 18:45:35;;;;;;;7.35;4.75;;;;;;;;;;10495448;28;20592;-86
2021/07/20 18:50:35;;;;;;;9.90;4.47;;;;;;;;;;10494692;28;20094;-86
2021/07/20 18:55:35;;;;;;;10.27;4.90;;;;;;;;;;10494691;28;20052;-86
2021/07/20 19:00:38;;;;;;;9.90;4.97;;;;;;;;;;10494567;28;20457;-86
2021/07/20 19:05:40;;;;;;;9.50;4.93;;;;;;;;;;10494511;28;20406;-85
2021/07/20 19:10:40;;;;;;;8.18;4.63;;;;;;;;;;10476207;28;20098;-86
2021/07/20 19:15:41;;;;;;;9.90;4.60;;;;;;;;;;10463176;28;20068;-86
2021/07/20 19:20:41;;;;;;;9.65;4.60;;;;;;;;;;10494265;28;20046;-86
2021/07/20 19:25:42;;;;;;;5.90;3.93;;;;;;;;;;10493700;28;20482;-86
2021/07/20 19:30:43;;;;;;;8.18;4.60;;;;;;;;;;10491663;28;20044;-86
2021/07/20 19:35:43;;;;;;;8.88;4.20;;;;;;;;;;10422477;28;20432;-85
2021/07/20 19:40:45;;;;;;;8.57;4.35;;;;;;;;;;10472648;28;20578;-83
2021/07/20 19:45:45;;;;;;;13.77;4.93;;;;;;;;;;10492872;28;20044;-83
2021/07/20 19:50:46;;;;;;;17.33;4.70;;;;;;;;;;10479334;28;20127;-83
2021/07/20 19:55:47;;;;;;;11.57;4.45;;;;;;;;;;10491973;28;20048;-83
2021/07/20 20:00:48;;;;;;;11.70;5.68;;;;;;;;;;10503326;28;20044;-83
2021/07/20 20:05:48;;;;;;;11.55;5.45;;;;;;;;;;10502103;28;20045;-83
2021/07/20 20:10:48;;;;;;;15.43;6.03;;;;;;;;;;10493568;28;20078;-82
2021/07/20 20:15:49;;;;;;;20.67;6.32;;;;;;;;;;10500833;28;20493;-83
2021/07/20 20:20:50;;;;;;;15.77;5.37;;;;;;;;;;10491311;28;20132;-83
2021/07/20 20:25:50;;;;;;;19.33;5.13;;;;;;;;;;10479739;28;20457;-83
2021/07/20 20:30:51;;;;;;;16.48;5.13;;;;;;;;;;10500069;28;20143;-83
2021/07/20 20:35:53;;;;;;;11.75;5.60;;;;;;;;;;10419333;28;20136;-83
2021/07/20 20:40:53;;;;;;;11.68;5.00;;;;;;;;;;10416372;28;20045;-84
2021/07/20 20:45:54;;;;;;;10.98;5.22;;;;;;;;;;10434343;28;20440;-83
2021/07/20 20:50:54;;;;;;;13.63;5.05;;;;;;;;;;10480355;28;20421;-84
2021/07/20 20:55:55;;;;;;;16.30;5.23;;;;;;;;;;10436146;28;20136;-83
2021/07/20 21:00:56;;;;;;;13.77;5.33;;;;;;;;;;10415435;28;20497;-83
2021/07/20 21:05:56;;;;;;;13.80;5.40;;;;;;;;;;10415526;28;20387;-83
2021/07/20 21:10:56;;;;;;;12.50;6.10;;;;;;;;;;10415287;28;20085;-84
2021/07/20 21:15:57;;;;;;;10.77;5.13;;;;;;;;;;10415279;28;20045;-82
2021/07/20 21:20:57;;;;;;;14.53;5.30;;;;;;;;;;10414875;28;20554;-83
2021/07/20 21:25:58;;;;;;;17.50;5.90;;;;;;;;;;10429819;28;20247;-83
2021/07/20 21:30:59;;;;;;;21.08;6.50;;;;;;;;;;10496857;28;20077;-84
2021/07/20 21:35:59;;;;;;;16.33;6.20;;;;;;;;;;10455974;28;20045;-84
2021/07/20 21:41:00;;;;;;;15.80;5.70;;;;;;;;;;10455863;28;20064;-85
2021/07/20 21:46:00;;;;;;;14.13;5.55;;;;;;;;;;10455427;28;20569;-85
2021/07/20 21:51:00;;;;;;;13.43;6.23;;;;;;;;;;10415884;28;20092;-85
2021/07/20 21:56:01;;;;;;;9.32;5.43;;;;;;;;;;10413649;28;20046;-83
2021/07/20 22:01:02;;;;;;;22.10;5.17;;;;;;;;;;10427784;28;20041;-83
2021/07/20 22:06:02;;;;;;;12.02;5.32;;;;;;;;;;10428662;28;20046;-83
2021/07/20 22:11:03;;;;;;;17.10;5.72;;;;;;;;;;10403743;28;20049;-82
